24J

Suwannee County Airport

Live Oak, Florida, USA
METAR K24J 210935Z AUTO 00000KT 10SM CLR 24/24 A2989 RMK A01
Observed Flight Rules
Jun-21 @ 09:35 UTC (25 minutes ago) Visual Flight Rules
Visibility Clouds
10 miles
  • Clear skies
Temperatures Readings
Current 24°C / 75°F
Dewpoint 24°C / 75°F
Humidity 100%
Altimeter 29.89" Hg
Pressure 1012 hPa
Elevation 32
METAR K24J 210935Z AUTO 00000KT 10SM CLR 24/24 A2989 RMK A01
Observed Flight Rules
Jun-21 @ 09:35 UTC
(25 minutes ago)
VFR
Clouds
  • Clear skies
Temperature Dewpoint
24°C / 75°F 24°C / 75°F
Humidity Altimeter Pressure
100% 29.89" Hg 1012 hPa